Time;durP1;ratioP1;P1;durP2;ratioP2;P2;SDS_P1;SDS_P2;PMS_P1;PMS_P2;Temp;Humidity;BMP_temperature;BMP_pressure;BME280_temperature;BME280_humidity;BME280_pressure;Samples;Min_cycle;Max_cycle;Signal;HPM_P1;HPM_P2
2023/01/18 07:36:11;;;;;;;0.30;0.30;;;1.60;99.90;3.90;99258.00;;;;5067645;28;20241;-68
2023/01/18 07:39:18;;;;;;;0.30;0.30;;;1.40;99.90;3.70;99276.00;;;;5054930;28;20189;-67
2023/01/18 07:42:24;;;;;;;0.60;0.60;;;1.40;99.90;4.60;99276.00;;;;5073836;28;20216;-68
2023/01/18 07:45:08;;;;;;;0.40;0.40;;;1.50;99.90;4.50;99289.00;;;;5057915;28;20253;-68
2023/01/18 07:48:03;;;;;;;4.30;3.97;;;1.70;99.90;4.20;99289.00;;;;5061396;28;20528;-67
2023/01/18 07:51:02;;;;;;;0.30;0.30;;;1.60;99.90;3.50;99281.00;;;;5074080;28;20239;-67
2023/01/18 07:53:57;;;;;;;0.30;0.30;;;1.50;99.90;4.40;99288.00;;;;5041615;28;20212;-68
2023/01/18 07:56:46;;;;;;;1.57;1.57;;;1.60;99.90;4.00;99311.00;;;;5050510;28;20683;-67
2023/01/18 07:59:34;;;;;;;0.37;0.37;;;1.70;99.90;3.50;99295.00;;;;5075376;28;20280;-67
2023/01/18 08:02:23;;;;;;;0.30;0.30;;;1.40;99.90;4.60;99307.00;;;;5068095;28;20197;-67
2023/01/18 08:04:57;;;;;;;0.40;0.40;;;1.70;99.90;4.10;99308.00;;;;5057999;28;20652;-67
2023/01/18 08:07:52;;;;;;;0.30;0.30;;;1.60;99.90;4.30;99308.00;;;;5059938;28;20186;-67
2023/01/18 08:10:40;;;;;;;0.63;0.63;;;1.70;99.90;4.90;99306.00;;;;5055435;28;20194;-67
2023/01/18 08:13:38;;;;;;;0.30;0.30;;;1.80;99.90;4.20;99199.00;;;;5043941;28;20208;-67
2023/01/18 08:16:17;;;;;;;0.30;0.30;;;1.90;99.90;4.50;99323.00;;;;5068694;28;20201;-68
2023/01/18 08:18:56;;;;;;;0.30;0.30;;;1.70;99.90;4.40;99261.00;;;;5070443;28;20621;-67
2023/01/18 08:21:46;;;;;;;0.30;0.30;;;1.70;99.90;4.00;99326.00;;;;5074921;28;20199;-68
2023/01/18 08:24:12;;;;;;;0.30;0.30;;;1.70;99.90;3.90;99315.00;;;;5081716;28;20195;-68
2023/01/18 08:26:38;;;;;;;0.60;0.60;;;1.50;99.90;3.60;99315.00;;;;5066790;28;20308;-68
2023/01/18 08:29:05;;;;;;;0.20;0.20;;;1.40;99.90;2.90;99328.00;;;;5063428;28;20200;-68
2023/01/18 08:31:31;;;;;;;1.17;1.17;;;1.10;99.90;3.10;99317.00;;;;5081612;28;20571;-67
2023/01/18 08:33:57;;;;;;;0.30;0.30;;;1.10;99.90;3.10;99262.00;;;;5085006;28;20196;-67
2023/01/18 08:36:27;;;;;;;0.30;0.30;;;1.10;99.90;2.50;99320.00;;;;5080945;28;20201;-68
2023/01/18 08:38:58;;;;;;;2.87;2.67;;;0.80;99.90;2.50;99326.00;;;;5056542;28;20197;-67
2023/01/18 08:41:29;;;;;;;0.40;0.40;;;0.80;99.90;2.10;99316.00;;;;5054157;28;20288;-68
2023/01/18 08:43:56;;;;;;;2.53;1.10;;;0.60;99.90;2.30;99320.00;;;;5058267;28;20208;-67
2023/01/18 08:46:23;;;;;;;0.37;0.37;;;0.70;99.90;2.90;99324.00;;;;5061674;28;20201;-68
2023/01/18 08:49:00;;;;;;;0.50;0.50;;;0.80;99.90;2.70;99328.00;;;;5069923;28;20192;-68
2023/01/18 08:51:26;;;;;;;0.83;0.83;;;0.80;99.90;3.30;99328.00;;;;5066883;28;20712;-68
2023/01/18 08:53:56;;;;;;;0.97;0.97;;;1.00;99.90;3.40;99356.00;;;;5073744;28;20189;-68
2023/01/18 08:56:25;;;;;;;0.33;0.33;;;1.10;99.90;3.20;99360.00;;;;5074365;28;20190;-68
2023/01/18 08:58:51;;;;;;;0.30;0.30;;;1.10;99.90;3.60;99313.00;;;;5057016;28;20193;-68
2023/01/18 09:01:21;;;;;;;1.20;1.20;;;1.20;99.90;2.90;99361.00;;;;5062463;28;20243;-68
2023/01/18 09:03:49;;;;;;;1.07;0.67;;;1.10;99.90;2.60;99241.00;;;;5065934;28;20601;-68
2023/01/18 09:06:16;;;;;;;0.30;0.30;;;1.00;99.90;2.90;99353.00;;;;5056522;28;20550;-68
2023/01/18 09:08:42;;;;;;;0.20;0.20;;;1.00;99.90;3.00;99346.00;;;;5039176;28;20188;-68
2023/01/18 09:11:32;;;;;;;0.80;0.77;;;1.10;99.90;2.80;99361.00;;;;5056745;28;20189;-68
2023/01/18 09:14:00;;;;;;;1.27;1.10;;;1.10;99.90;2.60;99348.00;;;;5060359;28;20192;-67
2023/01/18 09:16:29;;;;;;;1.90;1.73;;;1.00;99.90;2.30;99354.00;;;;5062347;28;20189;-67
2023/01/18 09:18:55;;;;;;;3.27;2.87;;;1.00;99.90;3.20;99330.00;;;;5071166;28;20191;-74
2023/01/18 09:21:21;;;;;;;0.83;0.83;;;1.20;99.90;3.30;99362.00;;;;5071719;28;20205;-67
2023/01/18 09:23:47;;;;;;;0.80;0.80;;;1.40;99.90;3.20;99378.00;;;;5071410;28;20193;-67
2023/01/18 09:26:19;;;;;;;0.30;0.30;;;1.50;99.90;3.70;99382.00;;;;5062753;28;20246;-70
2023/01/18 09:28:58;;;;;;;1.10;1.10;;;1.60;99.90;3.90;99393.00;;;;5058177;28;20601;-67
2023/01/18 09:31:32;;;;;;;0.20;0.20;;;1.70;99.90;3.70;99358.00;;;;5062742;28;20214;-67
2023/01/18 09:33:58;;;;;;;0.30;0.30;;;1.90;99.90;4.40;99304.00;;;;5070031;28;20200;-68
2023/01/18 09:36:26;;;;;;;0.30;0.30;;;2.10;99.90;5.50;99409.00;;;;5071522;28;20690;-71
2023/01/18 09:38:56;;;;;;;0.20;0.20;;;2.50;99.90;4.00;99389.00;;;;5067654;28;20185;-70
2023/01/18 09:41:42;;;;;;;0.30;0.30;;;2.30;99.90;4.50;99415.00;;;;5064093;28;20268;-74
2023/01/18 09:44:29;;;;;;;0.53;0.53;;;2.50;99.90;4.70;99410.00;;;;5079947;28;20209;-68
2023/01/18 09:47:01;;;;;;;0.70;0.70;;;2.70;99.90;5.90;99387.00;;;;5065044;28;20640;-69
2023/01/18 09:49:57;;;;;;;0.20;0.20;;;3.20;99.90;4.90;99427.00;;;;5087800;28;20717;-66
2023/01/18 09:52:45;;;;;;;2.10;0.77;;;2.90;99.90;5.90;99356.00;;;;5042981;28;20221;-63
2023/01/18 09:55:27;;;;;;;0.43;0.43;;;3.20;99.90;6.10;99455.00;;;;5070783;28;20192;-70
2023/01/18 09:58:18;;;;;;;1.00;1.00;;;3.80;99.90;6.20;99453.00;;;;5063864;28;20224;-70
2023/01/18 10:00:46;;;;;;;1.23;1.23;;;4.10;99.90;6.60;99458.00;;;;5072360;28;20195;-67
2023/01/18 10:03:30;;;;;;;0.30;0.30;;;4.40;99.90;7.90;99462.00;;;;5064893;28;20221;-67
2023/01/18 10:06:07;;;;;;;3.63;1.63;;;5.00;99.90;7.10;99471.00;;;;5075179;28;20218;-67
2023/01/18 10:08:52;;;;;;;0.10;0.10;;;5.30;99.90;6.80;99460.00;;;;5068230;28;20291;-65
2023/01/18 10:11:30;;;;;;;0.70;0.70;;;5.00;99.90;6.30;99464.00;;;;5068223;28;20642;-68
2023/01/18 10:14:17;;;;;;;0.17;0.17;;;4.80;99.90;6.70;99456.00;;;;5083215;28;20246;-63
2023/01/18 10:16:49;;;;;;;0.30;0.30;;;4.60;99.90;8.70;99461.00;;;;5072891;28;20631;-69
2023/01/18 10:19:25;;;;;;;0.40;0.40;;;5.40;99.90;7.20;99483.00;;;;5070173;28;20193;-67
2023/01/18 10:33:31;;;;;;;0.97;0.73;;;4.60;99.90;6.90;99469.00;;;;5070588;28;20556;-64
2023/01/18 10:36:05;;;;;;;0.10;0.10;;;4.80;99.90;6.50;99455.00;;;;5046034;28;20186;-68
2023/01/18 10:38:34;;;;;;;0.77;0.77;;;4.50;99.90;6.40;99475.00;;;;5050469;28;20225;-69
2023/01/18 10:41:01;;;;;;;0.53;0.53;;;4.40;99.90;7.30;99375.00;;;;5049737;28;20189;-69
2023/01/18 10:43:33;;;;;;;0.73;0.73;;;4.70;99.90;8.00;99473.00;;;;5032338;28;20186;-68
2023/01/18 10:45:59;;;;;;;0.10;0.10;;;5.30;99.90;7.20;99374.00;;;;5032453;28;20192;-69
2023/01/18 10:48:33;;;;;;;1.30;1.03;;;5.30;99.90;6.60;99457.00;;;;5050234;28;20269;-68
2023/01/18 10:51:08;;;;;;;3.53;1.33;;;4.90;99.90;6.30;99472.00;;;;5034800;28;20168;-72
2023/01/18 10:53:38;;;;;;;2.47;1.13;;;5.10;99.90;5.00;99455.00;;;;5037361;28;20646;-67
2023/01/18 10:56:16;;;;;;;0.30;0.30;;;4.10;99.90;6.70;99465.00;;;;5049087;28;20182;-67
2023/01/18 10:58:58;;;;;;;0.10;0.10;;;4.40;99.90;6.70;99382.00;;;;5048490;28;20265;-67
2023/01/18 11:01:34;;;;;;;2.57;2.40;;;4.60;99.90;6.10;99468.00;;;;5048602;28;20223;-65
2023/01/18 11:04:16;;;;;;;0.23;0.23;;;4.40;99.90;6.50;99465.00;;;;5038359;28;20185;-68
2023/01/18 11:07:07;;;;;;;0.77;0.47;;;4.40;99.90;6.10;99457.00;;;;5048895;28;20194;-67
2023/01/18 11:10:05;;;;;;;17.87;2.30;;;4.40;99.90;6.70;99452.00;;;;5048927;28;20278;-65
2023/01/18 11:12:46;;;;;;;2.53;1.53;;;4.60;99.90;6.80;99474.00;;;;5032691;28;20672;-69
2023/01/18 11:15:15;;;;;;;1.23;1.13;;;4.80;99.90;6.40;99388.00;;;;5032210;28;20175;-68
2023/01/18 11:17:45;;;;;;;0.40;0.40;;;4.90;99.90;5.80;99471.00;;;;5047810;28;20213;-68
2023/01/18 11:20:24;;;;;;;1.43;1.20;;;4.70;99.90;5.90;99464.00;;;;5049684;28;20649;-68
2023/01/18 11:22:59;;;;;;;0.10;0.10;;;4.60;99.90;7.30;99484.00;;;;5048179;28;20202;-67
2023/01/18 11:25:34;;;;;;;1.60;1.50;;;4.90;99.90;6.30;99459.00;;;;5049686;28;20188;-69
2023/01/18 11:28:12;;;;;;;1.13;1.13;;;4.90;99.90;6.30;99451.00;;;;5047314;28;20262;-70
2023/01/18 11:30:55;;;;;;;0.10;0.10;;;4.80;99.90;7.70;99462.00;;;;5047584;28;20178;-71
2023/01/18 11:33:29;;;;;;;0.60;0.60;;;5.00;99.90;7.10;99460.00;;;;5048211;28;20223;-68
2023/01/18 11:36:01;;;;;;;0.50;0.30;;;5.30;99.90;8.00;99461.00;;;;5049081;28;20188;-66
2023/01/18 11:38:36;;;;;;;0.30;0.30;;;5.60;99.90;7.50;99480.00;;;;5047949;28;20650;-69
2023/01/18 11:41:05;;;;;;;0.20;0.20;;;5.60;99.90;6.90;99477.00;;;;5046028;28;20194;-67
2023/01/18 11:43:35;;;;;;;0.10;0.10;;;5.50;99.90;7.80;99468.00;;;;5041383;28;20649;-67
2023/01/18 11:46:21;;;;;;;0.20;0.20;;;5.50;99.90;8.90;99466.00;;;;5034356;28;20570;-67
2023/01/18 11:49:14;;;;;;;0.10;0.10;;;6.00;99.90;10.30;99480.00;;;;5034380;28;20744;-67
2023/01/18 11:51:56;;;;;;;0.33;0.33;;;7.00;99.90;8.50;99484.00;;;;5030658;28;20218;-67
2023/01/18 11:54:47;;;;;;;0.30;0.30;;;6.50;99.90;8.70;99490.00;;;;5031901;28;20185;-67
2023/01/18 11:57:16;;;;;;;1.47;1.37;;;6.40;99.90;8.50;99493.00;;;;5035172;28;20190;-67
2023/01/18 11:59:49;;;;;;;0.40;0.40;;;6.30;99.90;7.30;99485.00;;;;5016894;28;20252;-67
2023/01/18 12:02:54;;;;;;;2.23;2.03;;;5.70;99.90;7.10;99493.00;;;;5019364;28;20206;-67
2023/01/18 12:05:28;;;;;;;0.30;0.20;;;5.60;99.90;7.60;99478.00;;;;5034101;28;20216;-67
2023/01/18 12:08:12;;;;;;;0.20;0.20;;;5.60;99.90;8.00;99401.00;;;;5015833;28;20189;-67
2023/01/18 12:11:24;;;;;;;0.30;0.20;;;5.70;99.90;6.60;99506.00;;;;5035136;28;20200;-66
2023/01/18 12:14:12;;;;;;;0.83;0.57;;;5.40;99.90;7.70;99490.00;;;;5031555;28;20655;-67
2023/01/18 12:17:04;;;;;;;0.50;0.50;;;5.80;99.90;8.80;99490.00;;;;5032541;28;20183;-67
2023/01/18 12:19:51;;;;;;;2.27;2.17;;;6.00;99.90;7.30;99526.00;;;;5034978;28;20186;-67
2023/01/18 12:22:58;;;;;;;1.07;0.77;;;6.10;99.90;7.70;99514.00;;;;5033381;28;20215;-67
2023/01/18 12:25:37;;;;;;;4.63;1.90;;;5.90;99.90;7.10;99521.00;;;;5032752;28;20194;-67
2023/01/18 12:28:18;;;;;;;0.30;0.30;;;5.80;99.90;6.40;99523.00;;;;5023297;28;20176;-67
2023/01/18 12:31:11;;;;;;;1.20;0.90;;;5.20;99.90;7.10;99507.00;;;;5034837;28;20184;-69
2023/01/18 12:34:07;;;;;;;1.73;1.63;;;5.40;99.90;6.80;99510.00;;;;5033882;28;20197;-69
2023/01/18 12:37:25;;;;;;;0.10;0.10;;;5.40;99.90;8.30;99520.00;;;;5026121;28;20188;-68
2023/01/18 12:40:41;;;;;;;1.57;0.50;;;5.90;99.90;7.60;99517.00;;;;5032394;28;20194;-69
2023/01/18 12:43:33;;;;;;;0.60;0.60;;;5.90;99.90;7.90;99422.00;;;;4992620;28;20214;-67
2023/01/18 12:46:33;;;;;;;0.10;0.10;;;6.10;99.90;8.60;99513.00;;;;5032236;28;20181;-68
2023/01/18 12:49:20;;;;;;;0.30;0.30;;;6.10;99.90;7.50;99491.00;;;;5022836;28;20199;-69
2023/01/18 12:52:32;;;;;;;1.07;0.73;;;6.00;99.90;7.30;99479.00;;;;5048002;28;20204;-69
2023/01/18 12:55:15;;;;;;;1.27;1.17;;;5.80;99.90;8.20;99521.00;;;;5028268;28;20374;-69
2023/01/18 12:58:04;;;;;;;2.13;1.47;;;6.20;99.90;8.00;99492.00;;;;5026121;28;20273;-69
2023/01/18 13:01:17;;;;;;;3.43;1.97;;;6.20;99.90;7.60;99405.00;;;;5030479;28;20266;-69
2023/01/18 13:04:01;;;;;;;0.10;0.10;;;6.00;99.90;8.50;99503.00;;;;5023383;28;20201;-70
2023/01/18 13:06:57;;;;;;;0.83;0.53;;;6.10;99.90;7.50;99518.00;;;;5016606;28;20388;-69
2023/01/18 13:09:42;;;;;;;0.97;0.97;;;6.30;99.90;7.60;99507.00;;;;5029400;28;20193;-69
2023/01/18 13:12:23;;;;;;;3.23;2.93;;;6.00;99.90;7.60;99515.00;;;;5040006;28;20202;-69
2023/01/18 13:15:13;;;;;;;1.27;1.03;;;5.80;99.90;7.70;99517.00;;;;5027386;28;20205;-69
2023/01/18 13:18:15;;;;;;;0.93;0.53;;;6.20;99.90;7.30;99508.00;;;;5029500;28;20192;-69
2023/01/18 13:21:12;;;;;;;1.53;0.80;;;5.70;99.90;7.90;99420.00;;;;5033020;28;20636;-69
2023/01/18 13:24:10;;;;;;;3.10;0.30;;;5.80;99.90;8.10;99438.00;;;;5032671;28;20201;-69
2023/01/18 13:27:16;;;;;;;1.60;1.40;;;6.00;99.90;8.10;99518.00;;;;5023619;28;20264;-69
2023/01/18 13:29:50;;;;;;;2.33;1.83;;;6.00;99.90;7.60;99526.00;;;;5031335;28;20208;-69
2023/01/18 13:32:48;;;;;;;0.60;0.60;;;6.00;99.90;7.00;99510.00;;;;5032766;28;20259;-69
2023/01/18 13:35:31;;;;;;;0.80;0.70;;;5.60;99.90;7.00;99527.00;;;;5033886;28;20219;-68
2023/01/18 13:38:16;;;;;;;1.97;0.30;;;5.40;99.90;7.60;99524.00;;;;5032521;28;20190;-68
2023/01/18 13:41:10;;;;;;;0.80;0.80;;;5.60;99.90;7.40;99522.00;;;;5023883;28;20186;-69
2023/01/18 13:44:04;;;;;;;3.70;2.13;;;5.80;99.90;6.80;99466.00;;;;5024274;28;20189;-68
2023/01/18 13:46:41;;;;;;;1.63;1.53;;;5.50;99.90;7.90;99529.00;;;;5032356;28;20188;-69
2023/01/18 13:49:34;;;;;;;1.97;1.87;;;5.70;99.90;8.40;99545.00;;;;5017893;28;20233;-69
2023/01/18 13:52:41;;;;;;;0.83;0.83;;;6.10;99.90;7.90;99538.00;;;;5011848;28;20474;-69
2023/01/18 13:55:32;;;;;;;0.37;0.37;;;6.20;99.90;7.40;99530.00;;;;5023749;28;20192;-68
2023/01/18 13:58:17;;;;;;;4.63;2.30;;;5.80;99.90;8.00;99517.00;;;;5026076;28;20276;-68
2023/01/18 14:00:57;;;;;;;0.30;0.30;;;6.00;99.90;8.50;99526.00;;;;5032291;28;20220;-69
2023/01/18 14:03:45;;;;;;;3.40;2.53;;;6.00;99.90;6.90;99527.00;;;;5016342;28;20182;-69
2023/01/18 14:06:42;;;;;;;1.93;1.47;;;5.70;99.90;6.90;99504.00;;;;5031555;28;20266;-69
2023/01/18 14:09:38;;;;;;;1.23;0.90;;;5.50;99.90;7.30;99429.00;;;;5003812;28;20213;-69
2023/01/18 14:12:51;;;;;;;0.20;0.20;;;5.60;99.90;7.00;99540.00;;;;5015496;28;20205;-69
2023/01/18 14:15:52;;;;;;;1.10;1.00;;;5.50;99.90;6.90;99547.00;;;;5032027;28;20603;-69
2023/01/18 14:19:18;;;;;;;0.70;0.70;;;5.40;99.90;6.60;99551.00;;;;4991433;28;20643;-69
2023/01/18 14:22:30;;;;;;;0.50;0.50;;;5.40;99.90;6.70;99564.00;;;;5023556;28;20188;-69
2023/01/18 14:26:05;;;;;;;1.70;0.93;;;5.30;99.90;7.60;99568.00;;;;5033028;28;20233;-69
2023/01/18 14:29:06;;;;;;;0.43;0.43;;;5.50;99.90;8.60;99564.00;;;;5022386;28;20671;-69
2023/01/18 14:32:04;;;;;;;0.67;0.67;;;5.90;99.90;7.50;99576.00;;;;5031514;28;20262;-69
2023/01/18 14:35:24;;;;;;;0.47;0.47;;;6.10;99.90;7.60;99563.00;;;;5031813;28;20188;-69
2023/01/18 14:38:14;;;;;;;0.60;0.30;;;5.70;99.90;8.20;99575.00;;;;5018937;28;20200;-69
2023/01/18 14:41:13;;;;;;;1.77;1.67;;;5.90;99.90;7.90;99556.00;;;;5032066;28;20746;-69
2023/01/18 14:44:14;;;;;;;0.97;0.97;;;6.00;99.90;7.20;99585.00;;;;5023790;28;20670;-69
2023/01/18 14:47:11;;;;;;;4.90;2.67;;;5.80;99.90;7.20;99491.00;;;;5022441;28;20198;-69
2023/01/18 14:50:09;;;;;;;0.43;0.43;;;5.80;99.90;7.30;99602.00;;;;5014968;28;20224;-69
2023/01/18 14:53:01;;;;;;;0.52;0.52;;;5.70;99.90;8.00;99592.00;;;;5014424;28;21005;-71
2023/01/18 14:55:38;;;;;;;2.00;1.53;;;5.90;99.90;7.10;99580.00;;;;5027540;28;20234;-68
2023/01/18 14:58:26;;;;;;;0.33;0.33;;;5.70;99.90;8.10;99609.00;;;;5024012;28;20582;-69
2023/01/18 15:01:39;;;;;;;0.80;0.80;;;5.80;99.90;8.50;99619.00;;;;5039730;28;20194;-69
2023/01/18 15:04:20;;;;;;;2.93;1.63;;;5.90;99.90;8.40;99600.00;;;;5045761;28;20217;-69
2023/01/18 15:06:55;;;;;;;0.57;0.57;;;6.20;99.90;7.80;99626.00;;;;5027374;28;20191;-69
2023/01/18 15:09:23;;;;;;;2.63;1.93;;;5.90;99.90;8.00;99593.00;;;;5027555;28;20185;-69
2023/01/18 15:11:52;;;;;;;1.03;0.83;;;5.90;99.90;8.00;99616.00;;;;5031274;28;20574;-70
2023/01/18 15:14:43;;;;;;;0.50;0.50;;;6.00;99.90;8.40;99609.00;;;;5013404;28;20205;-69
2023/01/18 15:17:38;;;;;;;1.00;0.93;;;6.00;99.90;8.50;99620.00;;;;5031053;28;20216;-70
2023/01/18 15:20:13;;;;;;;0.30;0.30;;;6.20;99.90;8.40;99603.00;;;;5034500;28;20635;-70
2023/01/18 15:22:56;;;;;;;0.30;0.30;;;6.20;99.90;8.10;99635.00;;;;5025491;28;20182;-70
2023/01/18 15:26:04;;;;;;;0.20;0.20;;;5.90;99.90;8.10;99627.00;;;;5035173;28;20198;-70
2023/01/18 15:28:49;;;;;;;1.17;1.17;;;5.70;99.90;7.70;99621.00;;;;5034635;28;20258;-69
2023/01/18 15:31:46;;;;;;;2.33;1.13;;;5.60;99.90;7.60;99631.00;;;;5035761;28;20194;-69
2023/01/18 15:34:43;;;;;;;0.10;0.10;;;5.80;99.90;7.80;99648.00;;;;5027228;28;20287;-69
2023/01/18 15:37:38;;;;;;;0.10;0.10;;;5.60;99.90;7.60;99648.00;;;;5063731;28;20231;-69
2023/01/18 15:40:26;;;;;;;0.37;0.37;;;5.50;99.90;7.50;99643.00;;;;5030044;28;20217;-69
2023/01/18 15:43:29;;;;;;;1.23;1.10;;;5.40;99.90;6.60;99647.00;;;;5017707;28;20193;-69
2023/01/18 15:46:13;;;;;;;0.20;0.20;;;5.20;99.90;7.00;99650.00;;;;5034610;28;20285;-69
2023/01/18 15:49:11;;;;;;;0.90;0.90;;;5.10;99.90;6.30;99637.00;;;;5034372;28;20185;-70
2023/01/18 15:52:01;;;;;;;0.30;0.30;;;5.00;99.90;7.00;99662.00;;;;5024569;28;20566;-69
2023/01/18 15:54:34;;;;;;;2.43;1.90;;;5.10;99.90;7.70;99556.00;;;;5057653;28;20338;-69
2023/01/18 15:57:21;;;;;;;0.20;0.20;;;5.20;99.90;7.40;99658.00;;;;5011724;28;20203;-69
2023/01/18 16:00:52;;;;;;;0.87;0.87;;;5.40;99.90;6.60;99656.00;;;;5034671;28;20191;-69
2023/01/18 16:03:47;;;;;;;0.10;0.10;;;5.10;99.90;7.80;99665.00;;;;5017293;28;20572;-70
2023/01/18 16:06:22;;;;;;;0.20;0.20;;;5.10;99.90;8.20;99675.00;;;;5026361;28;20274;-69
2023/01/18 16:09:09;;;;;;;0.20;0.20;;;5.30;99.90;8.10;99672.00;;;;5031405;28;20243;-69
2023/01/18 16:11:58;;;;;;;0.20;0.20;;;5.50;99.90;7.80;99682.00;;;;5033017;28;20575;-70
2023/01/18 16:14:44;;;;;;;0.20;0.20;;;5.50;99.90;8.50;99682.00;;;;5023951;28;20643;-70
2023/01/18 16:17:26;;;;;;;0.20;0.20;;;5.60;99.90;8.40;99678.00;;;;5019126;28;20187;-69
2023/01/18 16:20:00;;;;;;;0.20;0.20;;;5.70;99.90;8.10;99554.00;;;;5031088;28;20191;-70
2023/01/18 16:22:36;;;;;;;16.43;8.77;;;5.70;99.90;7.10;99692.00;;;;5035820;28;20651;-69
2023/01/18 16:25:22;;;;;;;0.30;0.30;;;5.30;99.90;7.80;99674.00;;;;5033423;28;20183;-69
2023/01/18 16:28:12;;;;;;;0.20;0.20;;;5.20;99.90;8.20;99682.00;;;;5034089;28;20253;-70
2023/01/18 16:30:53;;;;;;;0.20;0.20;;;5.30;99.90;7.60;99693.00;;;;5033578;28;20195;-69
2023/01/18 16:33:24;;;;;;;0.20;0.20;;;5.20;99.90;7.90;99693.00;;;;5033095;28;20250;-69
2023/01/18 16:35:55;;;;;;;0.20;0.20;;;5.20;99.90;8.20;99702.00;;;;5033018;28;20547;-69
2023/01/18 16:38:29;;;;;;;0.20;0.20;;;5.20;99.90;8.50;99688.00;;;;5016927;28;20197;-69
2023/01/18 16:41:02;;;;;;;0.20;0.20;;;5.30;99.90;7.80;99694.00;;;;5034899;28;20192;-69
2023/01/18 16:43:47;;;;;;;0.20;0.20;;;5.40;99.90;8.00;99713.00;;;;5034441;28;20357;-69
2023/01/18 16:46:22;;;;;;;6.30;6.03;;;5.30;99.90;8.70;99609.00;;;;5033403;28;20206;-69
2023/01/18 16:48:51;;;;;;;0.20;0.20;;;5.40;99.90;7.60;99714.00;;;;5033377;28;20190;-69
2023/01/18 16:51:27;;;;;;;0.30;0.30;;;5.30;99.90;8.30;99713.00;;;;5033332;28;20186;-69
2023/01/18 16:53:56;;;;;;;0.20;0.20;;;5.30;99.90;7.60;99681.00;;;;5022277;28;20217;-69
2023/01/18 16:56:48;;;;;;;0.50;0.50;;;5.20;99.90;6.60;99700.00;;;;5042362;28;20182;-69
2023/01/18 16:59:24;;;;;;;0.20;0.20;;;4.90;99.90;6.70;99685.00;;;;5055124;28;20668;-69
2023/01/18 17:02:24;;;;;;;0.37;0.37;;;4.60;99.90;6.40;99685.00;;;;5033052;28;20218;-69
2023/01/18 17:05:14;;;;;;;0.53;0.53;;;4.50;99.90;6.10;99692.00;;;;5024237;28;20342;-68
2023/01/18 17:08:16;;;;;;;0.47;0.47;;;4.30;99.90;7.20;99706.00;;;;5027291;28;20191;-69
2023/01/18 17:10:49;;;;;;;0.30;0.30;;;4.60;99.90;7.60;99621.00;;;;5030216;28;20197;-69
2023/01/18 17:13:15;;;;;;;0.20;0.20;;;4.70;99.90;7.30;99721.00;;;;5032937;28;20207;-69
2023/01/18 17:15:44;;;;;;;0.30;0.30;;;4.70;99.90;7.30;99709.00;;;;5032813;28;20218;-69
2023/01/18 17:18:27;;;;;;;1.57;1.50;;;4.80;99.90;7.20;99703.00;;;;5005038;28;20739;-69
2023/01/18 17:21:05;;;;;;;0.40;0.40;;;4.80;99.90;7.10;99645.00;;;;5031609;28;20175;-69
2023/01/18 17:23:39;;;;;;;0.67;0.67;;;4.70;99.90;7.10;99632.00;;;;5028199;28;20190;-68
2023/01/18 17:26:17;;;;;;;0.83;0.83;;;4.70;99.90;7.70;99734.00;;;;5034962;28;20263;-67
2023/01/18 17:28:43;;;;;;;0.80;0.80;;;4.80;99.90;7.50;99717.00;;;;5032770;28;20646;-69
2023/01/18 17:31:15;;;;;;;0.73;0.73;;;4.90;99.90;6.50;99739.00;;;;5032770;28;20175;-69
2023/01/18 17:33:44;;;;;;;0.53;0.53;;;4.80;99.90;6.20;99736.00;;;;5032760;28;20183;-69
2023/01/18 17:36:40;;;;;;;0.60;0.60;;;4.50;99.90;6.10;99725.00;;;;5030039;28;20218;-69
2023/01/18 17:39:38;;;;;;;0.50;0.50;;;4.30;99.90;7.50;99754.00;;;;5029646;28;20190;-69
2023/01/18 17:42:27;;;;;;;1.00;1.00;;;4.50;99.90;5.30;99744.00;;;;5020329;28;20526;-69
2023/01/18 17:45:21;;;;;;;0.40;0.40;;;4.10;99.90;5.80;99746.00;;;;5018623;28;20282;-69
2023/01/18 17:48:14;;;;;;;1.53;1.07;;;4.00;99.90;7.00;99765.00;;;;5028208;28;20191;-69
2023/01/18 17:50:43;;;;;;;0.40;0.40;;;4.40;99.90;6.60;99769.00;;;;5016458;28;20187;-69
2023/01/18 17:54:07;;;;;;;0.20;0.20;;;4.30;99.90;6.70;99765.00;;;;5023650;28;20227;-69
2023/01/18 17:56:47;;;;;;;0.37;0.37;;;4.30;99.90;7.40;99754.00;;;;5032493;28;20197;-69
2023/01/18 17:59:36;;;;;;;0.77;0.77;;;4.70;99.90;7.10;99776.00;;;;5032179;28;20192;-69
2023/01/18 18:02:07;;;;;;;0.73;0.73;;;4.70;99.90;7.20;99762.00;;;;5024285;28;20237;-69
2023/01/18 18:04:33;;;;;;;0.30;0.30;;;4.70;99.90;6.80;99760.00;;;;5033602;28;20190;-69
2023/01/18 18:07:42;;;;;;;0.43;0.43;;;4.50;99.90;6.80;99770.00;;;;5032356;28;20200;-69
2023/01/18 18:10:17;;;;;;;5.30;1.40;;;4.60;99.90;6.10;99769.00;;;;5032139;28;20206;-69
2023/01/18 18:13:06;;;;;;;2.50;1.60;;;4.30;99.90;5.60;99773.00;;;;5024901;28;20231;-69
2023/01/18 18:15:50;;;;;;;3.00;1.93;;;3.90;99.90;5.10;99752.00;;;;5032846;28;20633;-69
2023/01/18 18:18:44;;;;;;;0.53;0.53;;;3.70;99.90;4.70;99759.00;;;;5033304;28;20190;-69
2023/01/18 18:21:36;;;;;;;1.03;0.83;;;3.60;99.90;4.90;99739.00;;;;5014262;28;20214;-69
2023/01/18 18:24:44;;;;;;;2.40;1.70;;;3.50;99.90;5.20;99745.00;;;;5032832;28;20187;-69
2023/01/18 18:27:54;;;;;;;2.03;1.93;;;3.60;99.90;5.00;99749.00;;;;5031223;28;20225;-69
2023/01/18 18:30:59;;;;;;;2.37;2.17;;;3.60;99.90;5.20;99780.00;;;;5018617;28;20183;-69
2023/01/18 18:33:44;;;;;;;0.77;0.70;;;3.60;99.90;5.20;99784.00;;;;5012222;28;20669;-69
2023/01/18 18:37:04;;;;;;;5.90;2.03;;;3.60;99.90;4.90;99765.00;;;;5027654;28;20247;-69
2023/01/18 18:39:42;;;;;;;1.67;1.57;;;3.60;99.90;4.40;99771.00;;;;5028277;28;20199;-69
2023/01/18 18:42:08;;;;;;;1.93;1.83;;;3.50;99.90;4.90;99778.00;;;;5031316;28;20607;-69
2023/01/18 18:45:09;;;;;;;2.30;2.00;;;3.50;99.90;4.80;99782.00;;;;5037682;28;20190;-69
2023/01/18 18:48:18;;;;;;;2.70;2.07;;;3.50;99.90;4.60;99763.00;;;;5014815;28;20660;-69
2023/01/18 18:51:20;;;;;;;13.70;2.77;;;3.50;99.90;5.20;99755.00;;;;5026939;28;20226;-69
2023/01/18 18:53:48;;;;;;;1.23;1.23;;;3.50;99.90;4.90;99786.00;;;;5031288;28;20206;-69
2023/01/18 18:56:34;;;;;;;3.57;1.30;;;3.50;99.90;4.70;99776.00;;;;5018745;28;20341;-69
2023/01/18 18:59:38;;;;;;;0.40;0.40;;;3.40;99.90;5.70;99680.00;;;;5033674;28;20182;-69
2023/01/18 19:02:24;;;;;;;3.87;2.23;;;3.50;99.90;4.70;99774.00;;;;5021684;28;20256;-69
2023/01/18 19:04:50;;;;;;;2.13;1.77;;;3.60;99.90;4.90;99785.00;;;;5018455;28;20203;-69
2023/01/18 19:07:41;;;;;;;1.10;0.70;;;3.50;99.90;4.60;99776.00;;;;5036066;28;20178;-69
2023/01/18 19:10:38;;;;;;;1.30;1.20;;;3.40;99.90;4.50;99776.00;;;;5035025;28;20277;-69
2023/01/18 19:13:48;;;;;;;2.60;2.40;;;3.40;99.90;5.90;99788.00;;;;5016610;28;20202;-68
2023/01/18 19:17:06;;;;;;;0.97;0.67;;;3.80;99.90;5.70;99788.00;;;;5032949;28;20187;-69
2023/01/18 19:20:14;;;;;;;0.73;0.73;;;3.80;99.90;5.70;99794.00;;;;5019186;28;20581;-68
2023/01/18 19:22:40;;;;;;;0.60;0.60;;;3.80;99.90;5.90;99801.00;;;;5018501;28;20206;-69
2023/01/18 19:25:30;;;;;;;0.60;0.60;;;4.00;99.90;6.20;99807.00;;;;5015540;28;20341;-69
2023/01/18 19:28:31;;;;;;;0.40;0.40;;;4.10;99.90;7.00;99824.00;;;;5028945;28;20176;-69
2023/01/18 19:31:07;;;;;;;0.30;0.30;;;4.30;99.90;6.60;99836.00;;;;5025579;28;20291;-69
2023/01/18 19:33:55;;;;;;;1.27;1.27;;;4.40;99.90;6.10;99833.00;;;;5023572;28;20296;-70
2023/01/18 19:36:25;;;;;;;1.10;1.03;;;4.20;99.90;5.00;99821.00;;;;5026756;28;20194;-69
2023/01/18 19:39:44;;;;;;;3.77;2.93;;;3.80;99.90;5.90;99836.00;;;;5047150;28;20283;-69
2023/01/18 19:42:10;;;;;;;0.30;0.30;;;3.90;99.90;5.70;99842.00;;;;5023266;28;20198;-69
2023/01/18 19:45:14;;;;;;;0.93;0.93;;;3.80;99.90;5.00;99827.00;;;;5035943;28;20195;-69
2023/01/18 19:47:59;;;;;;;0.20;0.20;;;3.60;99.90;6.00;99719.00;;;;5051050;28;20205;-69
2023/01/18 19:50:38;;;;;;;1.93;1.83;;;3.70;99.90;5.00;99715.00;;;;5033166;28;20193;-70
2023/01/18 19:53:29;;;;;;;0.83;0.83;;;3.60;99.90;5.60;99803.00;;;;5034693;28;20218;-70
2023/01/18 19:56:33;;;;;;;2.03;1.87;;;3.60;99.90;5.30;99824.00;;;;5027555;28;20182;-69
2023/01/18 19:59:09;;;;;;;1.43;1.33;;;3.60;99.90;4.80;99798.00;;;;5018145;28;20659;-70
2023/01/18 20:01:35;;;;;;;0.30;0.30;;;3.50;99.90;5.30;99817.00;;;;5034662;28;20186;-70
2023/01/18 20:04:23;;;;;;;1.03;1.03;;;3.60;99.90;5.50;99837.00;;;;5034972;28;20179;-69
2023/01/18 20:07:24;;;;;;;4.97;2.33;;;3.70;99.90;4.90;99841.00;;;;5060980;28;20201;-70
2023/01/18 20:10:18;;;;;;;3.27;2.30;;;3.70;99.90;4.70;99763.00;;;;5030552;28;20186;-70
2023/01/18 20:13:07;;;;;;;0.30;0.30;;;3.60;99.90;5.40;99808.00;;;;5010266;28;20207;-69
2023/01/18 20:15:58;;;;;;;0.80;0.80;;;3.60;99.90;5.80;99838.00;;;;5032555;28;20182;-70
2023/01/18 20:18:29;;;;;;;4.73;2.37;;;3.90;99.90;4.80;99828.00;;;;5050715;28;20661;-70